Time;durP1;ratioP1;P1;durP2;ratioP2;P2;SDS_P1;SDS_P2;PMS_P1;PMS_P2;Temp;Humidity;BMP_temperature;BMP_pressure;BME280_temperature;BME280_humidity;BME280_pressure;Samples;Min_cycle;Max_cycle;Signal;HPM_P1;HPM_P2
2021/12/26 00:01:11;;;;;;;49.57;29.23;;;;;;;2.15;82.20;96793.16;6207978;23;20626;-58
2021/12/26 00:03:40;;;;;;;51.03;30.07;;;;;;;1.93;83.20;96776.53;6208727;23;20640;-59
2021/12/26 00:06:15;;;;;;;47.43;27.07;;;;;;;1.87;83.04;96772.38;6208929;23;20248;-59
2021/12/26 00:08:44;;;;;;;43.13;27.07;;;;;;;1.81;83.23;96776.72;6208267;23;20189;-58
2021/12/26 00:11:12;;;;;;;44.73;27.60;;;;;;;1.85;81.94;96769.00;6208891;23;20180;-57
2021/12/26 00:13:39;;;;;;;44.07;26.47;;;;;;;1.55;82.61;96779.66;6206617;23;20169;-57
2021/12/26 00:16:08;;;;;;;43.57;27.67;;;;;;;1.43;83.21;96767.94;6208597;23;20177;-57
2021/12/26 00:18:41;;;;;;;49.77;29.43;;;;;;;1.53;83.61;96776.31;6208035;23;20247;-57
2021/12/26 00:21:09;;;;;;;51.27;30.50;;;;;;;1.53;85.18;96777.16;6207698;23;20180;-58
2021/12/26 00:23:36;;;;;;;52.63;29.27;;;;;;;1.65;84.95;96776.97;6208591;23;20181;-57
2021/12/26 00:26:03;;;;;;;48.07;27.90;;;;;;;1.69;83.29;96784.59;6156266;23;20193;-57
2021/12/26 00:28:30;;;;;;;49.97;28.20;;;;;;;1.50;85.07;96786.56;6209176;23;20169;-58
2021/12/26 00:30:58;;;;;;;46.00;27.33;;;;;;;1.51;84.29;96786.53;6206890;23;20732;-58
2021/12/26 00:33:25;;;;;;;52.67;31.67;;;;;;;1.44;83.50;96787.47;6208797;23;20165;-57
2021/12/26 00:35:53;;;;;;;46.00;25.80;;;;;;;1.30;86.07;96793.66;6207998;23;20515;-57
2021/12/26 00:38:21;;;;;;;42.57;26.40;;;;;;;1.27;87.24;96794.53;6208383;23;20228;-58
2021/12/26 00:40:48;;;;;;;42.23;26.03;;;;;;;1.28;86.67;96780.91;6181869;23;20204;-57
2021/12/26 00:43:16;;;;;;;37.50;22.87;;;;;;;1.31;86.00;96801.28;6208166;23;20533;-58
2021/12/26 00:45:43;;;;;;;40.63;24.27;;;;;;;1.40;86.56;96801.16;6182448;23;20594;-57
2021/12/26 00:48:11;;;;;;;34.87;20.93;;;;;;;1.45;87.31;96799.38;6207941;23;20170;-57
2021/12/26 00:50:42;;;;;;;39.13;22.57;;;;;;;1.52;86.78;96795.91;6208782;23;20165;-58
2021/12/26 00:53:10;;;;;;;33.27;20.90;;;;;;;1.45;85.72;96796.84;6207836;23;20432;-57
2021/12/26 00:55:37;;;;;;;267.13;106.20;;;;;;;1.51;86.07;96781.44;6208366;23;20790;-57
2021/12/26 00:58:05;;;;;;;118.13;57.20;;;;;;;1.57;84.36;96786.44;6182016;23;20623;-57
2021/12/26 01:00:38;;;;;;;53.57;31.03;;;;;;;1.65;84.76;96784.63;6156393;23;20177;-56
2021/12/26 01:03:06;;;;;;;37.10;21.60;;;;;;;1.59;84.07;96788.97;6208514;23;20538;-57
2021/12/26 01:05:36;;;;;;;35.73;22.57;;;;;;;1.56;84.45;96792.44;6207354;23;20174;-56
2021/12/26 01:08:08;;;;;;;39.17;22.33;;;;;;;1.71;86.63;96785.41;6208552;23;20174;-57
2021/12/26 01:10:41;;;;;;;36.70;22.50;;;;;;;1.65;86.33;96782.06;6181079;23;20676;-57
2021/12/26 01:13:29;;;;;;;32.27;21.23;;;;;;;1.63;85.11;96772.75;6181895;23;20496;-57
2021/12/26 01:16:15;;;;;;;36.17;21.53;;;;;;;1.63;85.23;96778.69;6182453;23;20223;-57
2021/12/26 01:18:51;;;;;;;34.57;20.67;;;;;;;1.54;85.01;96783.97;6180981;23;20212;-57
2021/12/26 01:21:22;;;;;;;38.27;20.33;;;;;;;1.46;83.93;96782.38;6181728;23;20176;-56
2021/12/26 01:23:56;;;;;;;38.47;21.53;;;;;;;1.43;83.50;96774.75;6181480;23;20161;-58
2021/12/26 01:26:24;;;;;;;34.90;21.20;;;;;;;1.30;84.18;96773.25;6207883;23;20196;-57
2021/12/26 01:28:52;;;;;;;40.07;22.20;;;;;;;1.38;83.98;96772.25;6181695;23;20170;-57
2021/12/26 01:31:21;;;;;;;33.07;19.27;;;;;;;1.38;84.64;96774.81;6180803;23;20616;-57
2021/12/26 01:34:04;;;;;;;32.23;17.17;;;;;;;1.17;85.70;96772.59;6181914;23;20245;-57
2021/12/26 01:36:53;;;;;;;31.77;17.63;;;;;;;1.16;86.09;96782.78;6181238;23;20170;-58
2021/12/26 01:39:55;;;;;;;31.57;16.33;;;;;;;1.15;88.80;96773.47;6114821;23;20167;-57
2021/12/26 01:42:35;;;;;;;26.63;16.80;;;;;;;1.25;87.86;96775.03;6175649;23;20197;-58
2021/12/26 01:45:12;;;;;;;25.53;15.87;;;;;;;1.22;87.40;96758.06;6183254;23;20510;-58
2021/12/26 01:47:58;;;;;;;28.27;16.07;;;;;;;1.27;86.70;96770.75;6183267;23;20187;-56
2021/12/26 01:50:26;;;;;;;26.73;15.27;;;;;;;1.32;86.25;96768.97;6210126;23;20232;-57
2021/12/26 01:52:54;;;;;;;23.73;14.60;;;;;;;1.38;85.20;96756.97;6182648;23;20178;-56
2021/12/26 01:55:37;;;;;;;28.40;14.30;;;;;;;1.28;85.60;96760.50;6210447;23;20170;-58
2021/12/26 01:58:11;;;;;;;21.17;14.07;;;;;;;1.29;86.00;96764.75;6182794;23;20236;-58
2021/12/26 02:00:40;;;;;;;24.13;14.73;;;;;;;1.25;86.73;96754.63;6183364;23;20201;-56
2021/12/26 02:03:08;;;;;;;25.13;14.87;;;;;;;1.30;85.41;96771.53;6210246;23;20187;-56
2021/12/26 02:05:36;;;;;;;26.97;15.77;;;;;;;1.35;85.70;96777.44;6182783;23;20166;-57
2021/12/26 02:08:07;;;;;;;25.20;15.63;;;;;;;1.38;86.17;96763.78;6159890;23;20212;-57
2021/12/26 02:10:35;;;;;;;28.27;15.87;;;;;;;1.41;85.50;96767.13;6182670;23;20189;-58
2021/12/26 02:13:02;;;;;;;25.43;15.03;;;;;;;1.48;85.74;96762.78;6183834;23;20197;-60
2021/12/26 02:15:30;;;;;;;23.37;15.57;;;;;;;1.42;85.25;96758.59;6183100;23;20546;-58
2021/12/26 02:18:05;;;;;;;26.00;15.43;;;;;;;1.47;84.73;96761.94;6209338;23;20208;-58
2021/12/26 02:23:16;;;;;;;23.07;14.00;;;;;;;1.18;84.45;96751.31;6182428;23;20189;-61
2021/12/26 02:28:14;;;;;;;24.40;14.03;;;;;;;1.15;83.41;96753.91;6182884;23;20251;-58
2021/12/26 02:30:42;;;;;;;24.80;15.03;;;;;;;1.00;85.00;96749.00;6183105;23;20173;-58
2021/12/26 02:33:11;;;;;;;27.27;16.00;;;;;;;0.95;85.61;96755.88;6182968;23;20321;-58
2021/12/26 02:35:40;;;;;;;26.90;14.77;;;;;;;0.93;85.39;96759.31;6182803;23;20208;-58
2021/12/26 02:38:09;;;;;;;24.40;14.73;;;;;;;1.01;86.31;96760.88;6210223;23;20205;-59
2021/12/26 02:40:38;;;;;;;23.73;13.97;;;;;;;1.07;85.75;96754.88;6182675;23;20170;-57
2021/12/26 02:43:06;;;;;;;19.87;13.90;;;;;;;1.06;85.39;96753.19;6210398;23;20173;-57
2021/12/26 02:45:34;;;;;;;21.20;13.60;;;;;;;0.90;85.06;96746.59;6183381;23;20657;-58
2021/12/26 02:48:07;;;;;;;22.80;12.13;;;;;;;0.78;86.83;96766.28;6183497;23;20213;-58
2021/12/26 02:50:38;;;;;;;21.97;13.03;;;;;;;0.77;87.24;96762.06;6182766;23;20177;-57
2021/12/26 02:53:07;;;;;;;20.80;12.30;;;;;;;0.79;87.73;96756.94;6182783;23;20189;-57
2021/12/26 02:55:34;;;;;;;18.20;10.90;;;;;;;0.91;86.40;96758.50;6210314;23;20173;-58
2021/12/26 02:58:06;;;;;;;20.73;12.43;;;;;;;1.02;86.66;96756.63;6158026;23;20589;-57
2021/12/26 03:00:50;;;;;;;18.20;11.80;;;;;;;0.87;85.95;96761.94;6182606;23;20869;-57
2021/12/26 03:03:17;;;;;;;20.23;13.47;;;;;;;0.92;86.26;96753.38;6209291;23;20174;-57
2021/12/26 03:05:47;;;;;;;26.67;13.57;;;;;;;0.98;86.24;96757.53;6182236;23;20174;-58
2021/12/26 03:08:18;;;;;;;21.97;13.27;;;;;;;0.99;86.78;96754.13;6158255;23;20173;-57
2021/12/26 03:10:46;;;;;;;21.23;13.77;;;;;;;0.88;85.63;96749.19;6208455;23;20244;-57
2021/12/26 03:13:14;;;;;;;22.90;13.10;;;;;;;0.78;86.46;96737.41;6158626;23;20170;-57
2021/12/26 03:15:42;;;;;;;23.97;13.17;;;;;;;0.74;86.73;96740.88;6182507;23;20216;-56
2021/12/26 03:18:10;;;;;;;22.33;13.83;;;;;;;0.86;88.18;96740.72;6209173;23;20197;-57
2021/12/26 03:20:42;;;;;;;24.07;14.80;;;;;;;0.75;88.32;96748.50;6182352;23;20668;-57
2021/12/26 03:23:12;;;;;;;25.93;14.77;;;;;;;0.81;89.93;96745.84;6181996;23;20967;-57
2021/12/26 03:25:41;;;;;;;30.03;15.70;;;;;;;0.79;89.21;96756.94;6182782;23;20231;-57
2021/12/26 03:28:09;;;;;;;26.67;17.00;;;;;;;0.83;89.41;96756.03;6208519;23;20652;-57
2021/12/26 03:30:37;;;;;;;23.37;14.07;;;;;;;0.82;90.42;96755.19;6209101;23;20177;-57
2021/12/26 03:33:07;;;;;;;25.30;13.80;;;;;;;0.89;90.09;96743.19;6181951;23;20210;-57
2021/12/26 03:35:36;;;;;;;25.63;15.10;;;;;;;0.95;90.47;96750.78;6182327;23;20180;-57
2021/12/26 03:38:05;;;;;;;21.77;13.63;;;;;;;1.05;90.56;96752.31;6182839;23;20547;-58
2021/12/26 03:40:45;;;;;;;20.37;13.07;;;;;;;1.16;89.49;96765.78;6208391;23;20173;-59
2021/12/26 03:43:13;;;;;;;22.80;13.40;;;;;;;1.22;90.39;96752.94;6209666;23;20707;-57
2021/12/26 03:45:48;;;;;;;25.80;13.23;;;;;;;1.26;90.91;96759.69;6181769;23;20165;-57
2021/12/26 03:48:18;;;;;;;21.17;12.90;;;;;;;1.32;89.40;96757.06;6182395;23;20553;-57
2021/12/26 03:50:45;;;;;;;19.77;12.73;;;;;;;1.41;89.92;96771.38;6209148;23;20170;-61
2021/12/26 03:53:14;;;;;;;21.13;12.17;;;;;;;1.46;89.33;96767.88;6181964;23;20289;-56
2021/12/26 03:55:44;;;;;;;25.60;14.03;;;;;;;1.50;88.60;96758.50;6182839;23;20553;-59
2021/12/26 03:58:13;;;;;;;21.70;13.97;;;;;;;1.53;89.18;96772.06;6181352;23;20261;-57
2021/12/26 04:00:41;;;;;;;21.53;12.87;;;;;;;1.46;89.14;96762.78;6209451;23;20176;-57
2021/12/26 04:03:09;;;;;;;20.17;13.13;;;;;;;1.50;88.58;96769.56;6181730;23;20170;-57
2021/12/26 04:05:46;;;;;;;21.23;13.17;;;;;;;1.47;87.94;96763.63;6181505;23;20177;-58
2021/12/26 04:08:14;;;;;;;23.30;12.80;;;;;;;1.33;88.46;96760.44;6208592;23;20185;-57
2021/12/26 04:10:41;;;;;;;20.73;12.80;;;;;;;1.52;88.49;96765.28;6181906;23;20181;-56
2021/12/26 04:13:09;;;;;;;23.93;13.70;;;;;;;1.51;87.63;96778.88;6182573;23;20233;-57
2021/12/26 04:15:36;;;;;;;23.83;14.10;;;;;;;1.54;87.89;96772.91;6207836;23;20177;-58
2021/12/26 04:18:04;;;;;;;19.47;12.57;;;;;;;1.46;88.02;96780.66;6182262;23;20201;-57
2021/12/26 04:20:32;;;;;;;21.27;13.27;;;;;;;1.45;89.23;96778.13;6181521;23;20253;-59
2021/12/26 04:23:03;;;;;;;22.07;13.77;;;;;;;1.41;88.45;96774.78;6181820;23;20194;-56
2021/12/26 04:25:30;;;;;;;21.17;13.53;;;;;;;1.14;88.07;96716.53;6181933;23;20170;-57
2021/12/26 04:27:58;;;;;;;24.60;13.80;;;;;;;1.45;87.85;96775.56;6181373;23;20174;-56
2021/12/26 04:30:26;;;;;;;23.33;13.90;;;;;;;1.38;89.30;96772.25;6182342;23;20180;-56
2021/12/26 04:32:54;;;;;;;20.23;12.63;;;;;;;1.29;89.27;96774.13;6180800;23;20209;-56
2021/12/26 04:35:22;;;;;;;20.10;13.07;;;;;;;1.36;88.47;96776.53;6182623;23;20196;-56
2021/12/26 04:37:49;;;;;;;22.20;13.83;;;;;;;1.35;88.41;96772.31;6181183;23;20718;-58
2021/12/26 04:40:17;;;;;;;23.77;14.30;;;;;;;1.44;88.71;96777.28;6181802;23;20617;-60
2021/12/26 04:43:03;;;;;;;22.47;13.70;;;;;;;1.37;89.15;96767.19;6186681;23;20199;-56
2021/12/26 04:45:48;;;;;;;21.77;14.00;;;;;;;1.47;87.95;96787.44;6156319;23;20166;-56
2021/12/26 04:48:44;;;;;;;22.37;13.50;;;;;;;1.45;88.17;96784.06;6183328;23;20173;-56
2021/12/26 04:51:13;;;;;;;28.20;15.43;;;;;;;1.52;88.04;96787.38;6181708;23;20245;-56
2021/12/26 04:53:43;;;;;;;27.97;15.80;;;;;;;1.43;88.07;96790.91;6181434;23;20167;-57
2021/12/26 04:56:10;;;;;;;24.07;15.83;;;;;;;1.44;87.89;96781.56;6181851;23;20185;-56
2021/12/26 04:58:37;;;;;;;26.80;16.57;;;;;;;1.31;89.48;96770.69;6180747;23;20256;-56
2021/12/26 05:01:05;;;;;;;25.43;14.87;;;;;;;1.36;89.46;96774.00;6208476;23;20201;-57
2021/12/26 05:03:33;;;;;;;28.30;16.23;;;;;;;1.38;89.49;96774.00;6207755;23;20174;-58
2021/12/26 05:06:00;;;;;;;23.60;15.50;;;;;;;1.42;88.51;96773.09;6208191;23;20629;-57
2021/12/26 05:08:27;;;;;;;29.77;16.73;;;;;;;1.50;87.86;96776.38;6208024;23;20170;-57
2021/12/26 05:10:55;;;;;;;30.33;16.30;;;;;;;1.44;87.36;96782.38;6181188;23;20250;-61
2021/12/26 05:13:23;;;;;;;26.07;16.17;;;;;;;1.50;87.42;96773.81;6208822;23;20639;-57
2021/12/26 05:15:50;;;;;;;28.87;15.40;;;;;;;1.55;88.10;96775.41;6207564;23;20176;-57
2021/12/26 05:18:18;;;;;;;25.60;16.07;;;;;;;1.64;86.95;96775.28;6158640;23;20209;-59
2021/12/26 05:20:48;;;;;;;27.47;16.33;;;;;;;1.62;87.95;96779.56;6183220;23;20184;-57
2021/12/26 05:23:15;;;;;;;28.20;16.93;;;;;;;1.54;87.29;96783.09;6183725;23;20231;-57
2021/12/26 05:25:42;;;;;;;29.33;17.33;;;;;;;1.50;88.21;96777.22;6183406;23;20177;-57
2021/12/26 05:28:09;;;;;;;31.10;17.97;;;;;;;1.55;87.91;96780.53;6183429;23;20166;-63
2021/12/26 05:30:37;;;;;;;36.83;20.30;;;;;;;1.49;86.60;96775.50;6210387;23;20176;-57
2021/12/26 05:33:25;;;;;;;60.63;29.47;;;;;;;1.41;86.85;96779.88;6182847;23;20169;-59
2021/12/26 05:35:55;;;;;;;62.23;31.40;;;;;;;1.25;88.14;96765.66;6183740;23;20188;-57
2021/12/26 05:38:26;;;;;;;46.73;25.27;;;;;;;1.30;87.28;96776.63;6183434;23;20197;-58
2021/12/26 05:40:55;;;;;;;27.07;17.43;;;;;;;1.30;88.12;96771.53;6183824;23;20166;-57
2021/12/26 05:43:22;;;;;;;32.47;19.03;;;;;;;1.35;87.63;96758.72;6183999;23;20240;-55
2021/12/26 05:45:50;;;;;;;32.27;18.23;;;;;;;1.42;87.29;96767.97;6158621;23;20170;-56
2021/12/26 05:48:19;;;;;;;32.47;19.00;;;;;;;1.43;87.21;96777.31;6209744;23;20178;-56
2021/12/26 05:50:47;;;;;;;29.40;18.87;;;;;;;1.41;87.12;96772.22;6182681;23;20169;-57
2021/12/26 05:53:34;;;;;;;32.73;17.63;;;;;;;1.44;86.95;96774.72;6148238;23;20199;-59
2021/12/26 05:56:03;;;;;;;29.17;17.10;;;;;;;1.44;87.67;96772.16;6209769;23;20531;-56
2021/12/26 05:58:31;;;;;;;30.57;17.67;;;;;;;1.44;86.86;96773.91;6182670;23;20676;-63
2021/12/26 06:00:58;;;;;;;29.47;16.90;;;;;;;1.50;86.82;96784.88;6183342;23;20174;-59
2021/12/26 06:03:26;;;;;;;29.93;17.23;;;;;;;1.39;87.81;96768.00;6182495;23;20166;-65
2021/12/26 06:05:53;;;;;;;31.47;19.30;;;;;;;1.59;87.48;96792.38;6183779;23;20181;-58
2021/12/26 06:08:29;;;;;;;31.30;19.30;;;;;;;1.61;86.69;96802.53;6182885;23;20174;-56
2021/12/26 06:10:57;;;;;;;31.67;18.10;;;;;;;1.46;86.47;96805.34;6182935;23;20178;-57
2021/12/26 06:13:24;;;;;;;31.30;19.40;;;;;;;1.42;86.56;96793.50;6209553;23;20261;-56
2021/12/26 06:15:54;;;;;;;32.93;20.03;;;;;;;1.40;86.04;96798.59;6182538;23;20173;-56
2021/12/26 06:18:22;;;;;;;37.47;20.97;;;;;;;1.31;86.73;96797.88;6183005;23;20740;-56
2021/12/26 06:21:07;;;;;;;39.97;22.33;;;;;;;1.39;86.78;96807.13;6208728;23;20197;-56
2021/12/26 06:23:50;;;;;;;50.77;27.43;;;;;;;0.78;86.75;96712.75;6209538;23;20264;-56
2021/12/26 06:26:36;;;;;;;58.53;28.83;;;;;;;1.17;87.70;96813.38;6209689;23;20170;-56
2021/12/26 06:29:13;;;;;;;51.50;22.57;;;;;;;1.13;88.60;96821.94;6181731;23;20165;-56
2021/12/26 06:31:41;;;;;;;40.67;18.10;;;;;;;1.03;88.90;96830.53;6209451;23;20206;-57
2021/12/26 06:34:27;;;;;;;28.80;17.53;;;;;;;0.86;89.12;96822.25;6208837;23;20169;-58
2021/12/26 06:37:13;;;;;;;26.43;15.50;;;;;;;0.92;89.37;96837.47;6208662;23;20634;-57
2021/12/26 06:40:00;;;;;;;21.43;14.53;;;;;;;0.95;90.81;96827.22;6209895;23;20204;-61
2021/12/26 06:42:48;;;;;;;25.27;14.67;;;;;;;1.02;90.36;96833.97;6208886;23;20525;-57
2021/12/26 06:45:37;;;;;;;25.83;14.00;;;;;;;1.11;91.42;96828.75;6187651;23;20170;-56
2021/12/26 06:48:23;;;;;;;22.40;14.07;;;;;;;1.29;91.46;96830.22;6209129;23;20711;-57
2021/12/26 06:50:52;;;;;;;24.20;14.77;;;;;;;1.39;90.94;96814.78;6181764;23;20170;-57
2021/12/26 06:53:21;;;;;;;32.53;18.10;;;;;;;1.46;90.28;96801.06;6158230;23;20174;-57
2021/12/26 06:55:48;;;;;;;40.37;21.20;;;;;;;1.63;89.86;96816.13;6208746;23;20209;-57
2021/12/26 06:58:16;;;;;;;63.50;34.97;;;;;;;1.54;88.88;96804.38;6209396;23;20174;-59
2021/12/26 07:00:46;;;;;;;113.07;52.90;;;;;;;1.76;88.15;96816.78;6182221;23;20799;-57
2021/12/26 07:03:14;;;;;;;110.33;56.30;;;;;;;1.89;87.87;96818.28;6182409;23;20166;-57
2021/12/26 07:05:43;;;;;;;81.10;45.03;;;;;;;1.95;88.49;96810.53;6182538;23;20181;-58
2021/12/26 07:08:15;;;;;;;59.37;34.97;;;;;;;2.04;87.26;96806.13;6181611;23;20189;-58
2021/12/26 07:10:51;;;;;;;52.47;30.00;;;;;;;2.14;86.75;96817.84;6184841;23;20244;-57
2021/12/26 07:13:22;;;;;;;47.40;28.27;;;;;;;2.24;86.88;96810.91;6182112;23;20204;-57
2021/12/26 07:15:51;;;;;;;59.23;36.00;;;;;;;2.38;86.49;96819.16;6182018;23;20208;-57
2021/12/26 07:18:19;;;;;;;60.83;37.63;;;;;;;2.39;86.41;96801.25;6157344;23;20182;-57
2021/12/26 07:20:48;;;;;;;58.80;34.57;;;;;;;2.42;85.42;96814.00;6181926;23;20528;-58
2021/12/26 07:23:35;;;;;;;59.07;35.17;;;;;;;2.49;85.39;96820.66;6208955;23;20251;-65
2021/12/26 07:26:09;;;;;;;56.40;33.97;;;;;;;2.49;86.23;96825.75;6158898;23;20173;-57
2021/12/26 07:28:36;;;;;;;40.27;25.80;;;;;;;2.57;85.93;96817.13;6182000;23;20178;-58
2021/12/26 07:31:07;;;;;;;46.57;27.67;;;;;;;2.48;85.45;96820.69;6208053;23;20599;-57
2021/12/26 07:33:36;;;;;;;51.07;28.50;;;;;;;2.48;86.02;96819.00;6181310;23;20174;-57
2021/12/26 07:36:06;;;;;;;69.80;35.27;;;;;;;2.56;85.42;96810.31;6181984;23;20348;-57
2021/12/26 07:38:41;;;;;;;57.33;31.40;;;;;;;2.63;85.03;96811.91;6181411;23;20193;-58
2021/12/26 07:41:23;;;;;;;65.27;39.43;;;;;;;2.57;85.79;96797.53;6182048;23;20177;-58
2021/12/26 07:43:51;;;;;;;76.30;41.07;;;;;;;2.63;85.34;96805.09;6181299;23;20224;-58
2021/12/26 07:46:37;;;;;;;70.53;37.00;;;;;;;2.63;85.98;96797.41;6207891;23;20208;-60
2021/12/26 07:49:15;;;;;;;43.00;24.90;;;;;;;2.57;86.42;96797.53;6181615;23;20174;-59
2021/12/26 07:52:10;;;;;;;36.57;19.57;;;;;;;2.56;86.91;96802.66;6207385;23;20186;-59
2021/12/26 07:54:57;;;;;;;26.97;16.10;;;;;;;2.54;86.39;96807.81;6161268;23;20174;-56
2021/12/26 07:57:48;;;;;;;28.77;17.47;;;;;;;2.64;86.84;96813.59;6208178;23;20169;-57
2021/12/26 08:00:38;;;;;;;37.10;20.13;;;;;;;2.69;86.21;96822.88;6208026;23;20558;-61
2021/12/26 08:03:23;;;;;;;27.90;16.07;;;;;;;2.63;87.17;96822.97;6160568;23;20170;-60
2021/12/26 08:06:16;;;;;;;25.33;15.80;;;;;;;2.57;87.55;96817.97;6207643;23;20162;-59
2021/12/26 08:09:47;;;;;;;22.27;14.10;;;;;;;2.64;88.78;96814.41;6183968;22;20220;-57
2021/12/26 08:12:29;;;;;;;24.97;15.63;;;;;;;2.74;88.38;96815.94;6172006;23;20181;-62
2021/12/26 08:14:59;;;;;;;29.43;16.70;;;;;;;2.91;87.82;96819.03;6181164;23;20557;-66
2021/12/26 09:38:30;;;;;;;122.17;69.43;;;;;;;3.45;91.21;96791.47;5094150;27;20576;-63
2021/12/26 09:40:59;;;;;;;120.77;68.67;;;;;;;3.53;90.50;96784.44;5097679;28;20613;-56
2021/12/26 09:43:27;;;;;;;115.67;64.97;;;;;;;3.72;90.22;96790.00;5085194;28;20554;-62
2021/12/26 09:45:54;;;;;;;121.20;70.27;;;;;;;3.95;89.70;96796.28;5090178;28;20211;-55
2021/12/26 09:48:21;;;;;;;121.30;68.40;;;;;;;4.10;89.66;96793.31;5090825;28;20202;-71
2021/12/26 09:50:48;;;;;;;117.13;64.37;;;;;;;4.15;89.06;96806.03;5104582;28;20181;-68
2021/12/26 09:53:15;;;;;;;107.43;64.83;;;;;;;4.19;88.75;96794.81;5101404;28;20559;-69
2021/12/26 09:55:44;;;;;;;108.17;62.80;;;;;;;4.20;88.40;96798.22;5094855;28;20197;-65
2021/12/26 09:58:11;;;;;;;96.83;57.30;;;;;;;4.24;88.56;96800.69;5095634;28;20358;-65
2021/12/26 10:00:41;;;;;;;102.43;60.57;;;;;;;4.33;88.08;96812.44;5092736;28;20205;-67
2021/12/26 10:03:30;;;;;;;90.73;55.03;;;;;;;4.39;88.00;96825.91;5085542;28;20203;-66
2021/12/26 10:06:09;;;;;;;81.93;48.13;;;;;;;4.42;87.81;96819.88;5084305;28;20204;-63
2021/12/26 10:08:55;;;;;;;64.00;42.53;;;;;;;4.42;87.37;96823.28;5085103;28;20632;-59
2021/12/26 10:11:26;;;;;;;66.33;39.40;;;;;;;4.46;87.28;96819.75;5084925;28;20197;-59
2021/12/26 10:13:56;;;;;;;60.97;38.63;;;;;;;4.51;87.67;96815.38;5087261;28;20595;-56
2021/12/26 10:16:27;;;;;;;65.90;40.17;;;;;;;4.54;87.37;96812.72;5099509;28;20236;-55
2021/12/26 10:18:56;;;;;;;72.33;46.27;;;;;;;4.36;87.52;96802.09;5092376;28;20214;-59
2021/12/26 10:21:28;;;;;;;94.10;58.53;;;;;;;4.36;88.40;96804.66;5102427;28;20211;-57
2021/12/26 10:23:58;;;;;;;123.37;70.93;;;;;;;4.27;89.41;96800.59;5101680;28;20192;-56
2021/12/26 10:26:32;;;;;;;123.37;75.93;;;;;;;4.22;89.46;96787.06;5083642;28;20344;-58
2021/12/26 10:29:06;;;;;;;102.23;58.60;;;;;;;4.33;89.76;96782.50;5105252;28;20222;-56
2021/12/26 10:31:34;;;;;;;84.23;50.40;;;;;;;4.33;89.75;96785.06;5085999;28;20218;-56
2021/12/26 10:34:02;;;;;;;55.53;33.53;;;;;;;4.33;89.45;96771.44;5092969;28;20660;-56
2021/12/26 10:36:44;;;;;;;46.57;29.40;;;;;;;4.43;88.54;96766.00;5085819;28;20284;-57
2021/12/26 10:39:17;;;;;;;55.00;33.07;;;;;;;4.58;89.33;96765.59;5102659;28;20209;-54
2021/12/26 10:42:10;;;;;;;51.00;33.97;;;;;;;4.67;89.75;96760.22;5085866;28;20200;-58
2021/12/26 10:44:46;;;;;;;56.07;35.60;;;;;;;4.78;90.23;96760.75;5103104;28;20193;-59
2021/12/26 10:47:29;;;;;;;52.83;34.63;;;;;;;4.90;89.84;96747.59;5104571;28;20738;-60
2021/12/26 10:50:09;;;;;;;58.47;37.00;;;;;;;4.95;89.99;96744.91;5090059;28;20230;-61
2021/12/26 10:52:41;;;;;;;60.93;38.30;;;;;;;4.95;89.59;96744.91;5090420;28;20198;-65
2021/12/26 10:55:12;;;;;;;55.63;34.37;;;;;;;5.04;90.57;96744.66;5090961;28;20331;-61
2021/12/26 10:57:42;;;;;;;60.83;38.67;;;;;;;5.05;90.64;96740.38;5089688;28;20263;-63
2021/12/26 11:00:16;;;;;;;60.80;38.33;;;;;;;5.14;90.42;96750.34;5090967;28;20482;-61
2021/12/26 11:02:50;;;;;;;65.33;41.77;;;;;;;5.21;90.96;96744.16;5090066;28;20208;-59
2021/12/26 11:05:24;;;;;;;74.30;45.87;;;;;;;5.21;89.99;96751.84;5090081;28;20194;-61
2021/12/26 11:07:52;;;;;;;69.37;44.70;;;;;;;5.16;90.20;96751.97;5091198;28;20571;-62
2021/12/26 11:10:25;;;;;;;79.77;47.73;;;;;;;5.20;90.74;96751.00;5088208;28;20677;-58
2021/12/26 11:12:58;;;;;;;69.43;44.70;;;;;;;5.22;90.35;96753.53;5090673;28;20252;-60
2021/12/26 11:15:38;;;;;;;57.97;36.27;;;;;;;5.18;90.03;96749.38;5089525;28;20606;-65
2021/12/26 11:18:11;;;;;;;58.37;37.07;;;;;;;5.19;89.99;96746.78;5089832;28;20641;-57
2021/12/26 11:20:41;;;;;;;55.10;37.00;;;;;;;5.10;89.72;96748.75;5090232;28;20323;-65
2021/12/26 11:23:20;;;;;;;61.73;36.30;;;;;;;5.18;89.09;96754.50;5088851;28;20198;-61
2021/12/26 11:25:52;;;;;;;56.93;35.10;;;;;;;5.30;89.49;96751.56;5090356;28;20244;-66
2021/12/26 11:28:26;;;;;;;60.20;36.13;;;;;;;5.21;88.67;96733.88;5089178;28;20201;-69
2021/12/26 11:31:06;;;;;;;55.27;35.40;;;;;;;5.20;89.06;96750.16;5090002;28;20780;-67
2021/12/26 11:33:34;;;;;;;54.80;34.80;;;;;;;5.23;89.55;96755.22;5090516;28;20555;-62
2021/12/26 11:36:04;;;;;;;65.60;39.07;;;;;;;5.25;89.59;96756.00;5076802;28;20203;-65
2021/12/26 11:38:42;;;;;;;56.73;37.37;;;;;;;5.31;89.61;96753.25;5068676;28;20238;-61
2021/12/26 11:41:49;;;;;;;59.03;36.50;;;;;;;5.40;89.42;96755.56;5067257;28;20197;-67
2021/12/26 11:44:46;;;;;;;74.10;46.70;;;;;;;5.42;89.09;96764.88;5087044;28;20271;-60
2021/12/26 11:47:57;;;;;;;75.20;45.73;;;;;;;5.45;89.00;96746.81;5069511;28;20214;-64
2021/12/26 11:51:01;;;;;;;80.10;47.40;;;;;;;5.56;88.32;96756.78;5074838;28;20212;-57
2021/12/26 11:53:50;;;;;;;73.60;46.93;;;;;;;5.60;88.10;96760.94;5077579;28;20203;-58
2021/12/26 11:56:45;;;;;;;82.33;47.10;;;;;;;5.70;88.26;96767.47;5082663;28;20207;-61
2021/12/26 11:59:38;;;;;;;79.57;48.50;;;;;;;5.78;88.77;96766.34;5077288;28;20229;-59
2021/12/26 12:02:05;;;;;;;85.27;51.07;;;;;;;5.90;88.92;96754.00;5085379;28;20232;-56
2021/12/26 12:04:33;;;;;;;72.40;47.27;;;;;;;5.86;87.60;96747.28;5089831;28;20221;-58
2021/12/26 12:07:06;;;;;;;82.37;50.83;;;;;;;5.93;87.51;96754.78;5088457;28;20197;-61
2021/12/26 12:09:36;;;;;;;76.37;47.93;;;;;;;5.97;87.42;96765.78;5078315;28;20212;-57
2021/12/26 12:12:09;;;;;;;86.77;53.63;;;;;;;5.95;87.76;96747.00;5085256;28;20198;-56
2021/12/26 12:14:56;;;;;;;93.30;57.33;;;;;;;6.08;87.77;96769.66;5088416;28;20198;-57
2021/12/26 12:17:31;;;;;;;98.83;58.30;;;;;;;6.08;87.51;96764.53;5088885;28;20236;-56
2021/12/26 12:20:20;;;;;;;98.67;56.90;;;;;;;6.05;88.08;96762.09;5086731;28;20581;-62
2021/12/26 12:23:09;;;;;;;92.20;53.20;;;;;;;6.09;87.24;96749.97;5083024;28;20616;-60
2021/12/26 12:25:40;;;;;;;98.70;57.57;;;;;;;6.08;88.27;96749.09;5089129;28;20221;-63
2021/12/26 12:28:30;;;;;;;92.37;53.70;;;;;;;6.10;87.32;96752.47;5086153;28;20200;-57
2021/12/26 12:31:10;;;;;;;87.13;52.13;;;;;;;6.06;87.71;96763.75;5089068;28;20617;-59
2021/12/26 12:33:38;;;;;;;89.80;54.27;;;;;;;6.03;87.47;96758.72;5088521;28;20308;-62
2021/12/26 12:36:27;;;;;;;89.30;56.60;;;;;;;6.03;88.45;96765.59;5088357;28;20680;-57
2021/12/26 12:39:10;;;;;;;93.43;54.37;;;;;;;6.03;89.03;96758.72;5088955;28;20224;-62
2021/12/26 12:41:41;;;;;;;94.27;57.17;;;;;;;6.07;88.65;96768.00;5087963;28;20260;-66
2021/12/26 12:44:24;;;;;;;102.37;61.77;;;;;;;6.10;88.24;96774.78;5089070;28;20560;-63
2021/12/26 12:46:53;;;;;;;117.30;71.30;;;;;;;6.12;88.53;96771.25;5088879;28;20195;-64
2021/12/26 12:49:38;;;;;;;121.40;72.57;;;;;;;6.09;88.59;96776.50;5087735;28;20271;-57
2021/12/26 12:52:06;;;;;;;117.37;73.43;;;;;;;6.10;88.21;96775.59;5088922;28;20211;-64
2021/12/26 12:54:33;;;;;;;118.97;73.73;;;;;;;6.10;87.93;96772.22;5086618;28;20200;-66
2021/12/26 12:57:03;;;;;;;121.40;73.47;;;;;;;6.12;88.73;96775.56;5082189;28;20199;-63
2021/12/26 12:59:37;;;;;;;113.70;72.90;;;;;;;6.18;88.25;96765.91;5069511;28;20197;-64
2021/12/26 13:02:27;;;;;;;111.47;74.27;;;;;;;6.17;88.54;96769.38;5073871;28;20247;-65
2021/12/26 13:04:54;;;;;;;127.43;75.90;;;;;;;6.29;88.12;96770.69;5083148;28;20207;-66
2021/12/26 13:07:24;;;;;;;122.33;75.73;;;;;;;6.23;87.37;96766.63;5087207;28;20882;-65
2021/12/26 13:10:00;;;;;;;130.67;77.43;;;;;;;6.19;88.05;96772.75;5085628;28;20205;-67
2021/12/26 13:12:28;;;;;;;133.17;81.77;;;;;;;6.20;88.31;96782.13;5075843;28;20270;-64
2021/12/26 13:14:59;;;;;;;144.23;84.27;;;;;;;6.22;88.07;96757.19;5067982;28;20223;-60
2021/12/26 13:17:26;;;;;;;157.67;94.03;;;;;;;6.37;87.89;96773.84;5068069;28;20216;-59
2021/12/26 13:19:58;;;;;;;167.07;100.37;;;;;;;6.41;87.23;96778.84;5067380;28;20234;-57